Shuya, Russia
Current Conditions -  °F | °C
As of 9:00 AM on Wednesday 22 Oct 2014 (Local Time) from UUDL Reporting Station
Broken Clouds Broken Clouds  
Wind Chill:   Ceiling: 4300
Heat Index: 16°   Visibility: 6mi
Dew Point: 10°   Wind: 9mph
Humidity: 79%   Direction: 320°NW
Pressure: 29.8"   Gusts: NA
Location:  56.85°N, 41.36°E
Report Text: UUDL 220600Z 32004MPS 9999 SCT024CB BKN043 M09/M12 Q1009 NOSIGRMK QFE748 23850340
Loading
Personal Weather Stations






























Interactive Weather Map
Tropical Storm Tracking
New forecast layout! Learn more

10-Day Weather Forecast

Advertisements
Track Severe Weather on mobile